createdAt,value
2023-01-11T00:01:25.305Z,12.13
2023-01-11T00:03:52.917Z,9.43
2023-01-11T00:06:20.573Z,8.20
2023-01-11T00:08:49.552Z,9.75
2023-01-11T00:11:17.364Z,9.70
2023-01-11T00:13:45.805Z,9.60
2023-01-11T00:16:13.323Z,7.97
2023-01-11T00:18:40.829Z,10.02
2023-01-11T00:21:08.936Z,9.32
2023-01-11T00:23:37.496Z,8.60
2023-01-11T00:26:08.880Z,10.00
2023-01-11T00:28:36.537Z,10.05
2023-01-11T00:31:04.553Z,11.13
2023-01-11T00:33:32.267Z,11.13
2023-01-11T00:35:59.860Z,11.32
2023-01-11T00:38:27.614Z,10.68
2023-01-11T00:40:55.684Z,14.32
2023-01-11T00:43:24.768Z,10.63
2023-01-11T00:45:52.796Z,11.23
2023-01-11T00:48:20.399Z,11.60
2023-01-11T00:50:47.879Z,11.63
2023-01-11T00:53:15.424Z,11.63
2023-01-11T00:55:43.063Z,10.60
2023-01-11T00:58:10.672Z,11.00
2023-01-11T01:00:39.647Z,14.68
2023-01-11T01:03:13.420Z,13.10
2023-01-11T01:05:44.502Z,15.27
2023-01-11T01:08:12.908Z,13.25
2023-01-11T01:10:43.206Z,12.88
2023-01-11T01:13:20.100Z,12.13
2023-01-11T01:15:50.944Z,11.80
2023-01-11T01:18:20.707Z,14.70
2023-01-11T01:20:50.765Z,14.40
2023-01-11T01:23:18.766Z,15.07
2023-01-11T01:25:46.276Z,12.80
2023-01-11T01:28:13.820Z,12.50
2023-01-11T01:30:41.360Z,13.13
2023-01-11T01:33:10.291Z,10.98
2023-01-11T01:35:38.276Z,12.95
2023-01-11T01:38:06.256Z,12.32
2023-01-11T01:40:33.798Z,13.13
2023-01-11T01:43:01.346Z,14.50
2023-01-11T01:45:29.059Z,17.70
2023-01-11T01:48:00.312Z,14.25
2023-01-11T01:50:33.851Z,12.98
2023-01-11T01:53:06.159Z,11.10
2023-01-11T01:55:39.213Z,13.88
2023-01-11T01:58:12.012Z,14.32
2023-01-11T02:00:42.413Z,16.13
2023-01-11T02:03:11.215Z,13.93
2023-01-11T02:05:41.478Z,14.32
2023-01-11T02:08:17.409Z,13.77
2023-01-11T02:10:45.226Z,13.63
2023-01-11T02:13:13.251Z,13.20
2023-01-11T02:15:41.217Z,11.68
2023-01-11T02:18:12.504Z,15.00
2023-01-11T02:21:01.865Z,12.82
2023-01-11T02:23:52.558Z,12.82
2023-01-11T02:26:47.760Z,11.25
2023-01-11T02:29:30.192Z,10.50
2023-01-11T02:32:10.317Z,11.95
2023-01-11T02:34:45.092Z,10.88
2023-01-11T02:37:26.074Z,13.75
2023-01-11T02:40:02.987Z,11.90
2023-01-11T02:42:38.963Z,13.52
2023-01-11T02:45:17.609Z,13.68
2023-01-11T02:47:51.854Z,12.20
2023-01-11T02:50:28.264Z,10.25
2023-01-11T02:53:00.720Z,14.27
2023-01-11T02:55:32.655Z,13.80
2023-01-11T02:58:02.676Z,11.25
2023-01-11T03:00:32.192Z,11.55
2023-01-11T03:03:07.709Z,10.30
2023-01-11T03:05:38.583Z,9.75
2023-01-11T03:08:21.961Z,10.05
2023-01-11T03:11:01.275Z,12.63
2023-01-11T03:13:42.025Z,14.52
2023-01-11T03:16:24.897Z,11.30
2023-01-11T03:19:12.600Z,9.52
2023-01-11T03:21:51.118Z,11.18
2023-01-11T03:24:29.402Z,14.07
2023-01-11T03:27:09.207Z,9.52
2023-01-11T03:29:44.005Z,9.82
2023-01-11T03:32:22.294Z,10.25
2023-01-11T03:35:01.760Z,10.90
2023-01-11T03:37:36.220Z,12.40
2023-01-11T03:40:09.675Z,11.82
2023-01-11T03:42:41.202Z,14.30
2023-01-11T03:45:10.383Z,12.15
2023-01-11T03:47:39.540Z,8.70
2023-01-11T03:50:12.209Z,11.00
2023-01-11T03:52:42.700Z,12.38
2023-01-11T03:55:14.730Z,13.07
2023-01-11T03:57:46.741Z,11.20
2023-01-11T04:00:14.851Z,12.93
2023-01-11T04:02:43.767Z,11.88
2023-01-11T04:05:12.004Z,12.45
2023-01-11T04:07:39.520Z,10.95
2023-01-11T04:10:08.571Z,12.85
2023-01-11T04:12:36.066Z,13.40
2023-01-11T04:15:05.052Z,16.17
2023-01-11T04:17:32.749Z,15.02
2023-01-11T04:20:01.729Z,14.13
2023-01-11T04:22:29.257Z,15.13
2023-01-11T04:24:56.659Z,14.55
2023-01-11T04:27:24.174Z,21.95
2023-01-11T04:29:51.717Z,12.70
2023-01-11T04:32:19.274Z,18.73
2023-01-11T04:34:46.784Z,17.40
2023-01-11T04:37:15.817Z,18.45
2023-01-11T04:39:43.461Z,18.88
2023-01-11T04:42:12.438Z,14.30
2023-01-11T04:44:40.226Z,19.92
2023-01-11T04:47:07.851Z,11.65
2023-01-11T04:49:35.394Z,14.18
2023-01-11T04:52:02.921Z,13.50
2023-01-11T04:54:31.803Z,16.02
2023-01-11T04:56:59.588Z,16.50
2023-01-11T04:59:27.953Z,19.08
2023-01-11T05:01:55.473Z,14.02
2023-01-11T05:04:23.209Z,18.83
2023-01-11T05:06:50.816Z,20.05
2023-01-11T05:09:19.791Z,22.38
2023-01-11T05:11:48.882Z,21.67
2023-01-11T05:14:16.800Z,21.25
2023-01-11T05:16:44.508Z,25.02
2023-01-11T05:19:12.338Z,19.95
2023-01-11T05:21:41.184Z,24.02
2023-01-11T05:24:12.191Z,24.73
2023-01-11T05:26:41.930Z,25.85
2023-01-11T05:31:40.819Z,32.60
2023-01-11T05:34:10.043Z,29.08
2023-01-11T05:36:37.484Z,27.40
2023-01-11T05:39:05.614Z,27.08
2023-01-11T05:41:33.654Z,27.80
2023-01-11T05:44:01.358Z,26.45
2023-01-11T05:46:31.068Z,82.10
2023-01-11T05:51:26.796Z,32.88
2023-01-11T05:53:54.532Z,37.38
2023-01-11T05:56:22.055Z,58.83
2023-01-11T05:58:51.193Z,50.65
2023-01-11T06:01:21.260Z,40.58
2023-01-11T06:03:51.034Z,46.42
2023-01-11T06:08:47.469Z,38.67
2023-01-11T06:11:15.292Z,39.53
2023-01-11T06:13:42.785Z,35.63
2023-01-11T06:16:12.679Z,38.10
2023-01-11T06:18:42.731Z,30.77
2023-01-11T06:21:12.430Z,31.35
2023-01-11T06:26:10.352Z,25.98
2023-01-11T06:28:38.834Z,25.40
2023-01-11T06:31:06.976Z,24.77
2023-01-11T06:33:37.695Z,26.20
2023-01-11T06:36:06.980Z,30.15
2023-01-11T06:38:37.165Z,32.00
2023-01-11T06:41:06.846Z,27.50
2023-01-11T06:43:34.862Z,27.70
2023-01-11T06:46:02.517Z,28.10
2023-01-11T06:48:30.735Z,28.88
2023-01-11T06:50:58.926Z,26.48
2023-01-11T06:53:29.063Z,31.60
2023-01-11T06:55:58.945Z,26.35
2023-01-11T06:58:27.068Z,25.38
2023-01-11T07:00:57.045Z,31.98
2023-01-11T07:03:25.269Z,23.73
2023-01-11T07:05:53.918Z,24.65
2023-01-11T07:08:21.994Z,28.10
2023-01-11T07:10:50.338Z,27.85
2023-01-11T07:13:20.902Z,30.52
2023-01-11T07:15:49.949Z,28.25
2023-01-11T07:18:18.911Z,32.85
2023-01-11T07:20:47.240Z,32.25
2023-01-11T07:23:14.971Z,34.45
2023-01-11T07:25:42.623Z,35.80
2023-01-11T07:28:10.618Z,35.55
2023-01-11T07:30:56.251Z,31.75
2023-01-11T07:33:26.236Z,37.13
2023-01-11T07:35:54.285Z,31.98
2023-01-11T07:38:22.150Z,29.95
2023-01-11T07:40:49.823Z,33.45
2023-01-11T07:43:17.467Z,31.48
2023-01-11T07:45:48.579Z,28.98
2023-01-11T07:48:17.264Z,29.42
2023-01-11T07:50:45.495Z,27.45
2023-01-11T07:53:14.185Z,33.10
2023-01-11T07:55:41.999Z,27.92
2023-01-11T07:58:11.703Z,34.90
2023-01-11T08:00:40.194Z,29.27
2023-01-11T08:03:09.626Z,30.88
2023-01-11T08:05:37.340Z,29.27
2023-01-11T08:08:05.675Z,24.98
2023-01-11T08:10:33.807Z,25.10
2023-01-11T08:13:01.786Z,29.95
2023-01-11T08:15:29.913Z,25.15
2023-01-11T08:17:58.282Z,23.73
2023-01-11T08:20:27.254Z,26.52
2023-01-11T08:22:55.752Z,26.42
2023-01-11T08:25:23.460Z,25.50
2023-01-11T08:27:51.499Z,31.45
2023-01-11T08:30:20.121Z,31.60
2023-01-11T08:32:48.670Z,27.33
2023-01-11T08:35:17.085Z,26.83
2023-01-11T08:37:46.976Z,28.70
2023-01-11T08:40:15.181Z,34.25
2023-01-11T08:42:43.517Z,31.45
2023-01-11T08:45:12.110Z,30.50
2023-01-11T08:47:40.328Z,27.63
2023-01-11T08:50:09.779Z,26.25
2023-01-11T08:52:37.273Z,26.77
2023-01-11T08:55:07.289Z,27.00
2023-01-11T08:57:35.644Z,27.08
2023-01-11T09:00:04.323Z,29.13
2023-01-11T09:02:31.869Z,29.65
2023-01-11T09:04:59.398Z,28.90
2023-01-11T09:07:26.827Z,32.17
2023-01-11T09:09:54.440Z,26.80
2023-01-11T09:12:23.519Z,26.90
2023-01-11T09:14:51.304Z,122.60
2023-01-11T09:17:19.077Z,43.83
2023-01-11T09:19:47.117Z,30.50
2023-01-11T09:22:14.673Z,32.55
2023-01-11T09:24:42.253Z,30.00
2023-01-11T09:27:09.982Z,44.00
2023-01-11T09:29:39.185Z,43.08
2023-01-11T09:32:07.059Z,31.52
2023-01-11T09:34:34.838Z,32.90
2023-01-11T09:37:03.644Z,31.98
2023-01-11T09:39:31.200Z,32.90
2023-01-11T09:42:15.291Z,30.55
2023-01-11T09:44:50.487Z,35.33
2023-01-11T09:47:28.519Z,31.13
2023-01-11T09:50:03.270Z,28.70
2023-01-11T09:52:34.921Z,30.73
2023-01-11T09:55:02.584Z,32.90
2023-01-11T09:57:45.640Z,36.13
2023-01-11T10:00:23.652Z,39.15
2023-01-11T10:03:16.710Z,35.22
2023-01-11T10:06:02.028Z,40.25
2023-01-11T10:18:31.012Z,42.28
2023-01-11T10:18:37.854Z,45.92
2023-01-11T10:20:51.447Z,46.85
2023-01-11T10:23:24.548Z,49.17
2023-01-11T10:25:55.815Z,42.63
2023-01-11T10:28:27.887Z,45.47
2023-01-11T10:30:56.995Z,43.05
2023-01-11T10:33:35.181Z,47.75
2023-01-11T10:36:06.873Z,45.30
2023-01-11T10:38:38.202Z,44.67
2023-01-11T10:41:13.432Z,42.03
2023-01-11T10:43:44.419Z,44.72
2023-01-11T10:46:15.652Z,43.03
2023-01-11T10:48:46.198Z,49.05
2023-01-11T10:51:24.861Z,46.53
2023-01-11T10:54:01.163Z,43.55
2023-01-11T10:57:02.967Z,44.90
2023-01-11T11:00:04.390Z,39.08
2023-01-11T11:02:59.903Z,40.22
2023-01-11T11:05:37.611Z,40.97
2023-01-11T11:08:13.211Z,36.25
2023-01-11T11:10:49.852Z,36.85
2023-01-11T11:13:24.071Z,41.63
2023-01-11T11:15:57.109Z,39.45
2023-01-11T11:18:25.024Z,36.65
2023-01-11T11:20:53.942Z,35.95
2023-01-11T11:23:25.390Z,36.30
2023-01-11T11:25:58.538Z,39.88
2023-01-11T11:28:28.182Z,41.22
2023-01-11T11:30:59.330Z,35.25
2023-01-11T11:33:32.967Z,36.70
2023-01-11T11:36:04.048Z,39.17
2023-01-11T11:38:33.386Z,43.17
2023-01-11T11:41:06.998Z,41.55
2023-01-11T11:43:35.988Z,40.35
2023-01-11T11:46:05.344Z,40.70
2023-01-11T11:48:34.844Z,39.45
2023-01-11T11:53:39.189Z,66.07
2023-01-11T11:56:14.703Z,38.15
2023-01-11T11:58:44.799Z,43.83
2023-01-11T12:01:28.835Z,39.88
2023-01-11T12:04:01.508Z,39.50
2023-01-11T12:06:31.819Z,38.88
2023-01-11T12:09:02.670Z,35.85
2023-01-11T12:11:33.775Z,37.42
2023-01-11T12:14:05.270Z,39.90
2023-01-11T12:16:39.904Z,37.78
2023-01-11T12:19:27.342Z,40.00
2023-01-11T12:22:11.423Z,33.58
2023-01-11T12:24:39.880Z,34.83
2023-01-11T12:27:17.936Z,31.35
2023-01-11T12:30:03.787Z,39.42
2023-01-11T12:32:52.022Z,37.67
2023-01-11T12:35:34.660Z,32.85
2023-01-11T12:38:26.456Z,31.45
2023-01-11T12:41:08.641Z,38.25
2023-01-11T12:43:53.082Z,32.72
2023-01-11T12:46:30.003Z,32.75
2023-01-11T12:49:15.928Z,32.03
2023-01-11T12:52:01.350Z,30.33
2023-01-11T12:54:47.933Z,34.30
2023-01-11T12:57:26.943Z,30.13
2023-01-11T13:00:17.727Z,31.00
2023-01-11T13:03:08.761Z,32.92
2023-01-11T13:05:46.285Z,28.15
2023-01-11T13:08:22.045Z,28.05
2023-01-11T13:11:01.212Z,28.15
2023-01-11T13:13:36.698Z,30.33
2023-01-11T13:16:13.001Z,27.80
2023-01-11T13:18:47.620Z,26.90
2023-01-11T13:21:26.534Z,27.95
2023-01-11T13:23:57.135Z,31.88
2023-01-11T13:26:31.099Z,30.27
2023-01-11T13:29:01.849Z,28.48
2023-01-11T13:31:30.388Z,28.42
2023-01-11T13:34:02.843Z,30.48
2023-01-11T13:36:38.800Z,24.75
2023-01-11T13:39:14.327Z,22.63
2023-01-11T13:41:47.736Z,23.73
2023-01-11T13:44:21.556Z,24.20
2023-01-11T13:47:02.963Z,23.08
2023-01-11T13:49:44.614Z,21.55
2023-01-11T13:52:14.963Z,25.67
2023-01-11T13:54:49.763Z,21.23
2023-01-11T13:57:24.885Z,23.92
2023-01-11T13:59:57.836Z,25.73
2023-01-11T14:02:38.060Z,28.35
2023-01-11T14:05:14.828Z,23.80
2023-01-11T14:07:54.452Z,27.42
2023-01-11T14:10:33.523Z,22.27
2023-01-11T14:13:16.798Z,23.70
2023-01-11T14:15:54.763Z,23.17
2023-01-11T14:18:33.658Z,28.50
2023-01-11T14:21:07.984Z,31.90
2023-01-11T14:23:45.135Z,23.35
2023-01-11T14:26:35.537Z,23.45
2023-01-11T14:29:43.516Z,20.92
2023-01-11T14:32:35.210Z,24.30
2023-01-11T14:35:44.963Z,21.70
2023-01-11T14:38:33.880Z,22.55
2023-01-11T14:41:27.845Z,21.55
2023-01-11T14:44:13.631Z,20.92
2023-01-11T14:47:24.541Z,23.83
2023-01-11T14:50:06.259Z,21.95
2023-01-11T14:52:40.786Z,25.35
2023-01-11T14:55:16.611Z,22.13
2023-01-11T14:57:59.420Z,24.75
2023-01-11T15:01:11.149Z,21.58
2023-01-11T15:03:58.455Z,29.05
2023-01-11T15:06:31.456Z,26.70
2023-01-11T15:08:58.912Z,27.38
2023-01-11T15:11:33.024Z,18.17
2023-01-11T15:14:04.532Z,22.95
2023-01-11T15:16:34.475Z,19.08
2023-01-11T15:19:06.237Z,19.70
2023-01-11T15:21:40.876Z,26.23
2023-01-11T15:24:22.075Z,17.55
2023-01-11T15:26:51.203Z,20.30
2023-01-11T15:29:23.625Z,22.13
2023-01-11T15:32:15.626Z,18.60
2023-01-11T15:34:46.817Z,21.42
2023-01-11T15:37:42.698Z,21.70
2023-01-11T15:40:18.602Z,22.02
2023-01-11T15:43:21.664Z,22.58
2023-01-11T15:46:29.292Z,17.95
2023-01-11T15:49:41.357Z,17.35
2023-01-11T15:52:40.951Z,19.55
2023-01-11T15:58:25.860Z,19.35
2023-01-11T16:01:20.695Z,14.77
2023-01-11T16:04:02.752Z,17.98
2023-01-11T16:06:41.099Z,16.45
2023-01-11T16:09:40.863Z,21.97
2023-01-11T16:12:28.942Z,19.60
2023-01-11T16:15:30.001Z,16.90
2023-01-11T16:18:05.778Z,16.58
2023-01-11T16:20:33.642Z,16.67
2023-01-11T16:23:04.562Z,19.75
2023-01-11T16:25:39.010Z,18.00
2023-01-11T16:28:08.775Z,19.35
2023-01-11T16:30:36.416Z,17.55
2023-01-11T16:33:20.490Z,19.90
2023-01-11T16:35:48.250Z,17.05
2023-01-11T16:38:20.765Z,17.73
2023-01-11T16:40:53.369Z,16.05
2023-01-11T16:43:25.352Z,16.45
2023-01-11T16:45:53.997Z,20.52
2023-01-11T16:48:23.565Z,17.27
2023-01-11T16:51:00.596Z,16.52
2023-01-11T16:53:29.497Z,19.02
2023-01-11T16:56:02.182Z,17.55
2023-01-11T16:58:31.298Z,17.77
2023-01-11T17:01:01.022Z,18.15
2023-01-11T17:03:30.312Z,19.27
2023-01-11T17:06:16.848Z,18.33
2023-01-11T17:08:47.451Z,16.85
2023-01-11T17:11:24.110Z,18.85
2023-01-11T17:14:09.497Z,16.48
2023-01-11T17:16:42.126Z,14.80
2023-01-11T17:19:15.171Z,17.65
2023-01-11T17:21:48.654Z,14.50
2023-01-11T17:24:17.400Z,15.15
2023-01-11T17:26:48.941Z,17.08
2023-01-11T17:29:23.633Z,16.90
2023-01-11T17:31:51.442Z,15.60
2023-01-11T17:34:23.880Z,14.85
2023-01-11T17:36:51.853Z,13.57
2023-01-11T17:39:23.402Z,14.60
2023-01-11T17:41:53.141Z,14.05
2023-01-11T17:44:23.566Z,13.38
2023-01-11T17:46:51.287Z,15.93
2023-01-11T17:49:22.829Z,13.77
2023-01-11T17:51:50.664Z,15.38
2023-01-11T17:54:20.897Z,20.00
2023-01-11T17:56:56.047Z,13.57
2023-01-11T17:59:26.774Z,15.02
2023-01-11T18:01:56.996Z,14.95
2023-01-11T18:04:26.803Z,13.32
2023-01-11T18:06:56.646Z,15.00
2023-01-11T18:09:27.413Z,12.05
2023-01-11T18:12:08.479Z,12.38
2023-01-11T18:14:41.020Z,12.30
2023-01-11T18:17:36.413Z,11.68
2023-01-11T18:20:30.970Z,13.95
2023-01-11T18:23:03.147Z,12.05
2023-01-11T18:25:35.690Z,14.70
2023-01-11T18:28:38.588Z,14.85
2023-01-11T18:31:06.833Z,13.65
2023-01-11T18:33:35.019Z,13.38
2023-01-11T18:36:04.568Z,11.77
2023-01-11T18:38:33.526Z,15.52
2023-01-11T18:41:06.447Z,11.77
2023-01-11T18:43:34.924Z,13.68
2023-01-11T18:46:04.496Z,16.43
2023-01-11T18:48:31.997Z,15.10
2023-01-11T18:50:59.556Z,15.00
2023-01-11T18:53:27.127Z,16.17
2023-01-11T18:55:54.884Z,14.57
2023-01-11T18:58:22.372Z,14.27
2023-01-11T19:00:50.889Z,17.20
2023-01-11T19:03:19.928Z,12.80
2023-01-11T19:05:47.497Z,14.65
2023-01-11T19:08:15.199Z,11.02
2023-01-11T19:10:42.896Z,12.20
2023-01-11T19:13:11.059Z,13.60
2023-01-11T19:15:38.709Z,11.95
2023-01-11T19:18:06.491Z,12.70
2023-01-11T19:20:37.170Z,12.10
2023-01-11T19:23:04.717Z,14.05
2023-01-11T19:25:32.392Z,13.27
2023-01-11T19:28:01.960Z,11.40
2023-01-11T19:32:57.581Z,12.32
2023-01-11T19:35:25.136Z,14.18
2023-01-11T19:37:53.790Z,14.68
2023-01-11T19:40:21.565Z,15.50
2023-01-11T19:42:49.201Z,15.15
2023-01-11T19:45:17.090Z,11.38
2023-01-11T19:47:44.674Z,13.93
2023-01-11T19:50:12.143Z,11.00
2023-01-11T19:52:39.839Z,10.90
2023-01-11T19:55:09.937Z,14.20
2023-01-11T19:57:37.476Z,13.35
2023-01-11T20:00:05.625Z,13.73
2023-01-11T20:02:39.713Z,11.60
2023-01-11T20:05:08.200Z,12.02
2023-01-11T20:07:35.647Z,12.25
2023-01-11T20:10:03.399Z,10.90
2023-01-11T20:12:32.475Z,14.15
2023-01-11T20:15:00.142Z,11.80
2023-01-11T20:17:27.851Z,12.23
2023-01-11T20:19:55.947Z,18.23
2023-01-11T20:22:24.791Z,12.20
2023-01-11T20:24:52.339Z,10.45
2023-01-11T20:27:20.312Z,13.32
2023-01-11T20:29:49.260Z,14.15
2023-01-11T20:32:39.262Z,13.48
2023-01-11T20:35:06.014Z,17.13
2023-01-11T20:37:33.555Z,15.00
2023-01-11T20:40:01.058Z,13.15
2023-01-11T20:42:29.023Z,12.48
2023-01-11T20:44:58.253Z,14.05
2023-01-11T20:47:25.702Z,11.82
2023-01-11T20:49:53.274Z,11.02
2023-01-11T20:52:20.805Z,14.45
2023-01-11T20:54:48.319Z,14.10
2023-01-11T20:57:15.902Z,14.10
2023-01-11T20:59:43.487Z,16.05
2023-01-11T21:02:12.561Z,15.27
2023-01-11T21:04:40.273Z,12.93
2023-01-11T21:07:07.944Z,16.23
2023-01-11T21:09:35.505Z,14.15
2023-01-11T21:12:03.031Z,15.13
2023-01-11T21:14:31.009Z,14.25
2023-01-11T21:16:58.472Z,17.05
2023-01-11T21:19:27.420Z,15.13
2023-01-11T21:21:54.831Z,14.73
2023-01-11T21:24:22.288Z,16.73
2023-01-11T21:26:49.913Z,16.48
2023-01-11T21:29:17.842Z,15.90
2023-01-11T21:31:45.404Z,15.75
2023-01-11T21:34:13.908Z,15.32
2023-01-11T21:36:43.528Z,15.85
2023-01-11T21:41:39.689Z,16.33
2023-01-11T21:44:07.984Z,16.95
2023-01-11T21:46:35.861Z,13.68
2023-01-11T21:49:03.684Z,14.50
2023-01-11T21:51:31.271Z,14.73
2023-01-11T21:54:00.296Z,17.33
2023-01-11T21:56:27.775Z,17.27
2023-01-11T21:58:55.214Z,17.65
2023-01-11T22:01:22.710Z,14.15
2023-01-11T22:03:50.519Z,15.00
2023-01-11T22:06:18.283Z,13.20
2023-01-11T22:08:46.308Z,16.60
2023-01-11T22:11:16.786Z,15.43
2023-01-11T22:13:44.625Z,14.98
2023-01-11T22:16:14.566Z,14.80
2023-01-11T22:18:42.601Z,16.17
2023-01-11T22:21:11.966Z,13.88
2023-01-11T22:23:40.550Z,13.90
2023-01-11T22:26:10.218Z,14.00
2023-01-11T22:31:07.007Z,13.52
2023-01-11T22:33:36.872Z,13.68
2023-01-11T22:36:04.892Z,13.23
2023-01-11T22:38:33.002Z,12.45
2023-01-11T22:41:00.461Z,11.27
2023-01-11T22:43:28.590Z,10.70
2023-01-11T22:45:59.669Z,13.95
2023-01-11T22:48:27.903Z,11.13
2023-01-11T22:50:55.885Z,10.15
2023-01-11T22:53:23.465Z,10.48
2023-01-11T22:55:50.931Z,12.55
2023-01-11T22:58:18.359Z,10.82
2023-01-11T23:00:45.819Z,11.90
2023-01-11T23:03:15.649Z,9.52
2023-01-11T23:05:45.000Z,9.27
2023-01-11T23:08:12.747Z,8.68
2023-01-11T23:10:41.400Z,9.60
2023-01-11T23:13:09.765Z,8.40
2023-01-11T23:15:38.730Z,7.32
2023-01-11T23:18:06.578Z,10.32
2023-01-11T23:20:35.820Z,7.63
2023-01-11T23:23:03.314Z,8.32
2023-01-11T23:25:30.766Z,7.72
2023-01-11T23:27:58.221Z,8.00
2023-01-11T23:30:26.127Z,8.68
2023-01-11T23:32:53.617Z,8.02
2023-01-11T23:35:21.063Z,7.70
2023-01-11T23:37:49.922Z,8.18
2023-01-11T23:40:17.609Z,8.03
2023-01-11T23:42:45.053Z,8.23
2023-01-11T23:45:12.462Z,7.97
2023-01-11T23:47:39.906Z,10.10
2023-01-11T23:50:08.299Z,7.70
2023-01-11T23:52:35.775Z,8.00
2023-01-11T23:55:06.185Z,8.23
2023-01-11T23:57:33.627Z,9.77
